createdAt,value
2019-02-15T00:00:17.234Z,6.58
2019-02-15T00:01:17.221Z,6.51
2019-02-15T00:02:17.206Z,6.58
2019-02-15T00:03:17.190Z,6.52
2019-02-15T00:04:17.174Z,6.44
2019-02-15T00:05:17.175Z,6.40
2019-02-15T00:06:17.160Z,6.34
2019-02-15T00:07:17.150Z,6.30
2019-02-15T00:08:17.181Z,6.38
2019-02-15T00:09:17.142Z,6.38
2019-02-15T00:10:17.132Z,6.43
2019-02-15T00:11:17.107Z,6.34
2019-02-15T00:12:17.105Z,6.27
2019-02-15T00:13:17.100Z,6.36
2019-02-15T00:14:17.081Z,6.30
2019-02-15T00:15:17.083Z,6.30
2019-02-15T00:16:17.046Z,6.25
2019-02-15T00:17:17.042Z,6.30
2019-02-15T00:18:17.030Z,6.28
2019-02-15T00:19:17.071Z,6.25
2019-02-15T00:20:17.020Z,6.21
2019-02-15T00:21:17.014Z,6.17
2019-02-15T00:22:16.988Z,6.22
2019-02-15T00:23:16.975Z,6.27
2019-02-15T00:24:16.990Z,6.15
2019-02-15T00:25:16.967Z,6.18
2019-02-15T00:26:16.985Z,6.08
2019-02-15T00:27:16.930Z,6.11
2019-02-15T00:28:16.917Z,6.14
2019-02-15T00:29:16.904Z,6.03
2019-02-15T00:30:16.899Z,6.08
2019-02-15T00:31:16.892Z,6.04
2019-02-15T00:32:16.906Z,6.06
2019-02-15T00:33:16.885Z,6.01
2019-02-15T00:34:16.857Z,6.01
2019-02-15T00:35:16.842Z,6.09
2019-02-15T00:36:16.842Z,6.01
2019-02-15T00:37:16.824Z,5.99
2019-02-15T00:38:16.822Z,6.06
2019-02-15T00:39:16.800Z,6.04
2019-02-15T00:40:16.803Z,6.03
2019-02-15T00:41:16.781Z,6.03
2019-02-15T00:42:16.779Z,5.91
2019-02-15T00:43:22.239Z,6.04
2019-02-15T00:44:17.805Z,5.97
2019-02-15T00:45:16.742Z,6.08
2019-02-15T00:46:16.726Z,5.96
2019-02-15T00:47:16.717Z,5.96
2019-02-15T00:48:16.728Z,5.97
2019-02-15T00:49:16.712Z,5.93
2019-02-15T00:50:16.697Z,5.96
2019-02-15T00:51:16.673Z,5.96
2019-02-15T00:52:16.679Z,5.97
2019-02-15T00:53:16.672Z,5.94
2019-02-15T00:54:16.681Z,5.93
2019-02-15T00:55:16.626Z,5.97
2019-02-15T00:56:16.616Z,5.96
2019-02-15T00:57:16.625Z,5.99
2019-02-15T00:58:16.683Z,5.94
2019-02-15T00:59:16.602Z,5.94
2019-02-15T01:00:16.583Z,5.96
2019-02-15T01:01:16.566Z,5.86
2019-02-15T01:02:16.552Z,5.97
2019-02-15T01:03:16.563Z,5.90
2019-02-15T01:04:16.543Z,5.94
2019-02-15T01:05:16.534Z,5.91
2019-02-15T01:06:16.519Z,5.97
2019-02-15T01:07:16.498Z,5.91
2019-02-15T01:08:16.490Z,5.93
2019-02-15T01:09:16.498Z,5.89
2019-02-15T01:10:16.485Z,5.85
2019-02-15T01:11:16.468Z,5.85
2019-02-15T01:12:16.459Z,5.85
2019-02-15T01:13:17.307Z,5.82
2019-02-15T01:14:16.436Z,5.78
2019-02-15T01:15:16.417Z,5.78
2019-02-15T01:16:16.405Z,5.90
2019-02-15T01:17:16.400Z,5.82
2019-02-15T01:18:16.393Z,5.82
2019-02-15T01:19:16.384Z,5.74
2019-02-15T01:20:16.395Z,5.83
2019-02-15T01:21:16.363Z,5.85
2019-02-15T01:22:16.365Z,5.83
2019-02-15T01:23:16.334Z,5.82
2019-02-15T01:24:16.320Z,5.83
2019-02-15T01:25:16.338Z,5.81
2019-02-15T01:26:16.315Z,5.74
2019-02-15T01:27:16.291Z,5.75
2019-02-15T01:28:16.276Z,5.72
2019-02-15T01:29:16.265Z,5.64
2019-02-15T01:30:16.268Z,5.76
2019-02-15T01:31:16.255Z,5.65
2019-02-15T01:32:16.247Z,5.78
2019-02-15T01:33:16.223Z,5.72
2019-02-15T01:34:16.219Z,5.68
2019-02-15T01:35:16.204Z,5.65
2019-02-15T01:36:16.203Z,5.78
2019-02-15T01:37:16.201Z,5.67
2019-02-15T01:38:16.184Z,5.72
2019-02-15T01:39:16.154Z,5.71
2019-02-15T01:40:16.153Z,5.75
2019-02-15T01:41:16.143Z,5.63
2019-02-15T01:42:16.131Z,5.75
2019-02-15T01:43:16.138Z,5.74
2019-02-15T01:44:16.104Z,5.75
2019-02-15T01:45:16.099Z,5.71
2019-02-15T01:46:16.095Z,5.65
2019-02-15T01:47:16.092Z,5.71
2019-02-15T01:48:16.091Z,5.68
2019-02-15T01:49:16.069Z,5.64
2019-02-15T01:50:16.052Z,5.60
2019-02-15T01:51:16.025Z,5.64
2019-02-15T01:52:16.052Z,5.56
2019-02-15T01:53:16.006Z,5.51
2019-02-15T01:54:15.990Z,5.61
2019-02-15T01:55:16.008Z,5.61
2019-02-15T01:56:15.983Z,5.53
2019-02-15T01:57:15.972Z,5.58
2019-02-15T01:58:15.972Z,5.49
2019-02-15T01:59:15.942Z,5.53
2019-02-15T02:00:15.931Z,5.46
2019-02-15T02:01:15.939Z,5.51
2019-02-15T02:02:15.922Z,5.48
2019-02-15T02:03:15.897Z,5.48
2019-02-15T02:04:15.886Z,5.48
2019-02-15T02:05:15.895Z,5.45
2019-02-15T02:06:15.904Z,5.48
2019-02-15T02:07:15.863Z,5.36
2019-02-15T02:08:15.847Z,5.51
2019-02-15T02:09:15.840Z,5.48
2019-02-15T02:10:15.826Z,5.46
2019-02-15T02:11:15.812Z,5.46
2019-02-15T02:12:15.822Z,5.53
2019-02-15T02:13:15.798Z,5.46
2019-02-15T02:14:15.788Z,5.54
2019-02-15T02:15:15.772Z,5.49
2019-02-15T02:16:15.775Z,5.49
2019-02-15T02:17:15.749Z,5.38
2019-02-15T02:18:15.756Z,5.45
2019-02-15T02:19:15.729Z,5.53
2019-02-15T02:20:15.731Z,5.40
2019-02-15T02:21:15.707Z,5.43
2019-02-15T02:22:15.706Z,5.43
2019-02-15T02:23:15.681Z,5.40
2019-02-15T02:24:15.686Z,5.48
2019-02-15T02:25:15.684Z,5.33
2019-02-15T02:26:15.646Z,5.35
2019-02-15T02:27:15.656Z,5.40
2019-02-15T02:28:15.640Z,5.42
2019-02-15T02:29:15.620Z,5.48
2019-02-15T02:30:15.631Z,5.43
2019-02-15T02:31:15.604Z,5.49
2019-02-15T02:32:15.618Z,5.46
2019-02-15T02:33:15.577Z,5.42
2019-02-15T02:34:15.566Z,5.53
2019-02-15T02:35:15.555Z,5.40
2019-02-15T02:36:15.538Z,5.46
2019-02-15T02:37:15.536Z,5.51
2019-02-15T02:38:15.536Z,5.54
2019-02-15T02:39:15.519Z,5.57
2019-02-15T02:40:15.511Z,5.54
2019-02-15T02:41:15.488Z,5.51
2019-02-15T02:42:15.493Z,5.60
2019-02-15T02:43:15.473Z,5.58
2019-02-15T02:44:15.473Z,5.60
2019-02-15T02:45:15.437Z,5.57
2019-02-15T02:46:15.456Z,5.49
2019-02-15T02:47:15.439Z,5.49
2019-02-15T02:48:15.410Z,5.46
2019-02-15T02:49:15.401Z,5.49
2019-02-15T02:50:15.393Z,5.46
2019-02-15T02:51:15.397Z,5.46
2019-02-15T02:52:15.378Z,5.43
2019-02-15T02:53:15.366Z,5.46
2019-02-15T02:54:15.348Z,5.48
2019-02-15T02:55:15.353Z,5.51
2019-02-15T02:56:15.329Z,5.58
2019-02-15T02:57:15.331Z,5.51
2019-02-15T02:58:15.296Z,5.57
2019-02-15T02:59:15.300Z,5.60
2019-02-15T03:00:15.291Z,5.49
2019-02-15T03:01:15.305Z,5.60
2019-02-15T03:02:15.318Z,5.63
2019-02-15T03:03:15.247Z,5.58
2019-02-15T03:04:15.235Z,5.61
2019-02-15T03:05:15.227Z,5.57
2019-02-15T03:06:15.235Z,5.56
2019-02-15T03:07:15.219Z,5.57
2019-02-15T03:08:15.200Z,5.51
2019-02-15T03:09:15.180Z,5.58
2019-02-15T03:10:15.182Z,5.61
2019-02-15T03:11:15.176Z,5.48
2019-02-15T03:12:15.189Z,5.49
2019-02-15T03:13:15.151Z,5.58
2019-02-15T03:14:15.138Z,5.51
2019-02-15T03:15:15.116Z,5.53
2019-02-15T03:16:15.107Z,5.49
2019-02-15T03:17:15.114Z,5.51
2019-02-15T03:18:15.115Z,5.48
2019-02-15T03:19:15.085Z,5.42
2019-02-15T03:20:15.073Z,5.43
2019-02-15T03:21:15.053Z,5.48
2019-02-15T03:22:15.051Z,5.42
2019-02-15T03:23:15.035Z,5.39
2019-02-15T03:24:15.025Z,5.49
2019-02-15T03:25:15.058Z,5.40
2019-02-15T03:26:15.002Z,5.43
2019-02-15T03:27:15.011Z,5.39
2019-02-15T03:28:14.979Z,5.40
2019-02-15T03:29:14.970Z,5.53
2019-02-15T03:30:14.961Z,5.45
2019-02-15T03:31:14.965Z,5.43
2019-02-15T03:32:14.939Z,5.46
2019-02-15T03:33:14.973Z,5.42
2019-02-15T03:34:14.962Z,5.46
2019-02-15T03:35:14.909Z,5.42
2019-02-15T03:36:14.901Z,5.42
2019-02-15T03:37:14.905Z,5.38
2019-02-15T03:38:14.892Z,5.38
2019-02-15T03:39:14.853Z,5.39
2019-02-15T03:40:14.858Z,5.36
2019-02-15T03:41:14.842Z,5.35
2019-02-15T03:42:14.845Z,5.40
2019-02-15T03:43:14.833Z,5.42
2019-02-15T03:44:21.680Z,5.45
2019-02-15T03:45:15.801Z,5.35
2019-02-15T03:46:14.783Z,5.33
2019-02-15T03:47:14.794Z,5.33
2019-02-15T03:48:14.791Z,5.33
2019-02-15T03:49:14.779Z,5.31
2019-02-15T03:50:14.746Z,5.24
2019-02-15T03:51:14.734Z,5.25
2019-02-15T03:52:14.720Z,5.33
2019-02-15T03:53:14.707Z,5.35
2019-02-15T03:54:14.710Z,5.33
2019-02-15T03:55:14.718Z,5.33
2019-02-15T03:56:14.672Z,5.30
2019-02-15T03:57:14.668Z,5.35
2019-02-15T03:58:14.653Z,5.28
2019-02-15T03:59:14.639Z,5.38
2019-02-15T04:00:14.658Z,5.31
2019-02-15T04:01:14.618Z,5.20
2019-02-15T04:02:14.614Z,5.28
2019-02-15T04:03:14.598Z,5.18
2019-02-15T04:04:14.590Z,5.21
2019-02-15T04:05:14.581Z,5.30
2019-02-15T04:06:14.598Z,5.15
2019-02-15T04:07:14.562Z,5.12
2019-02-15T04:08:14.540Z,5.12
2019-02-15T04:09:14.532Z,5.12
2019-02-15T04:10:14.538Z,5.15
2019-02-15T04:11:14.501Z,5.03
2019-02-15T04:12:14.495Z,5.07
2019-02-15T04:13:14.497Z,5.09
2019-02-15T04:14:14.482Z,5.12
2019-02-15T04:15:14.469Z,5.04
2019-02-15T04:16:14.540Z,4.96
2019-02-15T04:17:14.460Z,4.99
2019-02-15T04:18:14.437Z,4.92
2019-02-15T04:19:14.430Z,4.96
2019-02-15T04:20:14.405Z,4.96
2019-02-15T04:21:14.403Z,4.97
2019-02-15T04:22:14.404Z,4.89
2019-02-15T04:23:14.385Z,4.89
2019-02-15T04:24:14.391Z,4.88
2019-02-15T04:25:14.355Z,4.86
2019-02-15T04:26:14.345Z,4.85
2019-02-15T04:27:14.340Z,4.80
2019-02-15T04:28:14.363Z,4.82
2019-02-15T04:29:14.317Z,4.72
2019-02-15T04:30:14.315Z,4.82
2019-02-15T04:31:14.287Z,4.78
2019-02-15T04:32:14.297Z,4.73
2019-02-15T04:33:14.275Z,4.66
2019-02-15T04:34:14.257Z,4.63
2019-02-15T04:35:14.261Z,4.70
2019-02-15T04:36:14.245Z,4.63
2019-02-15T04:37:14.244Z,4.62
2019-02-15T04:38:14.241Z,4.69
2019-02-15T04:39:14.204Z,4.66
2019-02-15T04:40:14.197Z,4.62
2019-02-15T04:41:14.211Z,4.62
2019-02-15T04:42:14.181Z,4.63
2019-02-15T04:43:14.155Z,4.59
2019-02-15T04:44:14.150Z,4.55
2019-02-15T04:45:14.152Z,4.60
2019-02-15T04:46:14.144Z,4.67
2019-02-15T04:47:14.144Z,4.59
2019-02-15T04:48:14.123Z,4.58
2019-02-15T04:49:14.100Z,4.55
2019-02-15T04:50:14.092Z,4.59
2019-02-15T04:51:14.079Z,4.55
2019-02-15T04:52:14.073Z,4.54
2019-02-15T04:53:14.064Z,4.47
2019-02-15T04:54:14.044Z,4.52
2019-02-15T04:55:14.044Z,4.50
2019-02-15T04:56:14.035Z,4.51
2019-02-15T04:57:14.034Z,4.52
2019-02-15T04:58:14.014Z,4.54
2019-02-15T04:59:14.021Z,4.44
2019-02-15T05:00:13.985Z,4.52
2019-02-15T05:01:13.977Z,4.62
2019-02-15T05:02:14.013Z,4.63
2019-02-15T05:03:13.955Z,4.60
2019-02-15T05:04:13.952Z,4.58
2019-02-15T05:05:13.933Z,4.62
2019-02-15T05:06:13.918Z,4.58
2019-02-15T05:07:13.914Z,4.65
2019-02-15T05:08:13.908Z,4.63
2019-02-15T05:09:13.899Z,4.59
2019-02-15T05:10:13.887Z,4.60
2019-02-15T05:11:13.864Z,4.60
2019-02-15T05:12:13.874Z,4.59
2019-02-15T05:13:13.845Z,4.65
2019-02-15T05:14:13.851Z,4.69
2019-02-15T05:15:13.820Z,4.60
2019-02-15T05:16:13.809Z,4.65
2019-02-15T05:17:13.808Z,4.69
2019-02-15T05:18:13.792Z,4.73
2019-02-15T05:19:13.805Z,4.70
2019-02-15T05:20:13.772Z,4.72
2019-02-15T05:21:13.761Z,4.70
2019-02-15T05:22:13.756Z,4.77
2019-02-15T05:23:13.757Z,4.70
2019-02-15T05:24:13.740Z,4.70
2019-02-15T05:25:13.731Z,4.69
2019-02-15T05:26:13.712Z,4.62
2019-02-15T05:27:13.739Z,4.58
2019-02-15T05:28:13.683Z,4.58
2019-02-15T05:29:13.682Z,4.50
2019-02-15T05:30:13.684Z,4.40
2019-02-15T05:31:13.679Z,4.41
2019-02-15T05:32:13.663Z,4.37
2019-02-15T05:33:13.643Z,4.40
2019-02-15T05:34:13.623Z,4.33
2019-02-15T05:35:13.617Z,4.36
2019-02-15T05:36:13.617Z,4.20
2019-02-15T05:37:13.599Z,4.29
2019-02-15T05:38:13.598Z,4.18
2019-02-15T05:39:13.577Z,4.24
2019-02-15T05:40:13.583Z,4.20
2019-02-15T05:41:13.559Z,4.24
2019-02-15T05:42:13.545Z,4.16
2019-02-15T05:43:13.545Z,4.12
2019-02-15T05:44:13.524Z,4.24
2019-02-15T05:45:13.501Z,4.14
2019-02-15T05:46:13.525Z,4.04
2019-02-15T05:47:13.495Z,4.09
2019-02-15T05:48:13.487Z,4.06
2019-02-15T05:49:13.475Z,4.05
2019-02-15T05:50:13.463Z,4.02
2019-02-15T05:51:13.461Z,3.93
2019-02-15T05:52:13.429Z,3.97
2019-02-15T05:53:13.418Z,3.90
2019-02-15T05:54:13.424Z,3.94
2019-02-15T05:55:13.419Z,3.88
2019-02-15T05:56:13.393Z,3.80
2019-02-15T05:57:13.397Z,3.87
2019-02-15T05:58:13.370Z,3.75
2019-02-15T05:59:13.355Z,3.87
2019-02-15T06:00:13.363Z,3.78
2019-02-15T06:01:13.376Z,3.79
2019-02-15T06:02:13.329Z,3.75
2019-02-15T06:03:13.902Z,3.73
2019-02-15T06:04:13.301Z,3.75
2019-02-15T06:05:13.286Z,3.73
2019-02-15T06:06:13.304Z,3.76
2019-02-15T06:07:13.301Z,3.76
2019-02-15T06:08:13.272Z,3.70
2019-02-15T06:09:13.252Z,3.70
2019-02-15T06:10:13.244Z,3.57
2019-02-15T06:11:13.234Z,3.48
2019-02-15T06:12:13.215Z,3.51
2019-02-15T06:13:13.246Z,3.33
2019-02-15T06:14:13.210Z,3.40
2019-02-15T06:15:15.425Z,3.33
2019-02-15T06:16:13.181Z,3.29
2019-02-15T06:17:13.192Z,3.21
2019-02-15T06:18:13.188Z,3.28
2019-02-15T06:19:13.148Z,3.26
2019-02-15T06:20:13.145Z,3.28
2019-02-15T06:21:13.138Z,3.26
2019-02-15T06:22:13.124Z,3.26
2019-02-15T06:23:13.142Z,3.33
2019-02-15T06:24:13.087Z,3.28
2019-02-15T06:25:13.077Z,3.31
2019-02-15T06:26:13.066Z,3.33
2019-02-15T06:27:13.058Z,3.29
2019-02-15T06:28:13.052Z,3.35
2019-02-15T06:29:13.062Z,3.28
2019-02-15T06:30:13.028Z,3.32
2019-02-15T06:31:13.037Z,3.28
2019-02-15T06:32:12.999Z,3.20
2019-02-15T06:33:13.001Z,3.20
2019-02-15T06:34:12.995Z,3.17
2019-02-15T06:35:12.974Z,3.20
2019-02-15T06:36:12.958Z,3.29
2019-02-15T06:37:12.973Z,3.28
2019-02-15T06:38:12.938Z,3.20
2019-02-15T06:39:12.929Z,3.20
2019-02-15T06:40:12.972Z,3.24
2019-02-15T06:41:12.917Z,3.32
2019-02-15T06:42:12.900Z,3.40
2019-02-15T06:43:12.883Z,3.52
2019-02-15T06:44:12.888Z,3.57
2019-02-15T06:45:12.858Z,3.73
2019-02-15T06:46:12.851Z,3.79
2019-02-15T06:47:12.842Z,3.96
2019-02-15T06:48:12.841Z,3.91
2019-02-15T06:49:12.817Z,3.93
2019-02-15T06:50:12.837Z,3.93
2019-02-15T06:51:12.802Z,3.94
2019-02-15T06:52:12.792Z,4.06
2019-02-15T06:53:12.783Z,4.11
2019-02-15T06:54:12.772Z,4.02
2019-02-15T06:55:12.783Z,4.18
2019-02-15T06:56:12.758Z,4.20
2019-02-15T06:57:12.725Z,4.29
2019-02-15T06:58:12.738Z,4.33
2019-02-15T06:59:12.711Z,4.33
2019-02-15T07:00:12.733Z,4.30
2019-02-15T07:01:12.718Z,4.44
2019-02-15T07:02:12.721Z,4.44
2019-02-15T07:03:12.671Z,4.40
2019-02-15T07:04:12.656Z,4.55
2019-02-15T07:05:12.663Z,4.40
2019-02-15T07:06:12.642Z,4.55
2019-02-15T07:07:12.642Z,4.48
2019-02-15T07:08:12.628Z,4.60
2019-02-15T07:09:12.636Z,4.60
2019-02-15T07:10:12.591Z,4.66
2019-02-15T07:11:12.585Z,4.63
2019-02-15T07:12:12.582Z,4.69
2019-02-15T07:13:12.589Z,4.72
2019-02-15T07:14:12.552Z,4.85
2019-02-15T07:15:12.553Z,4.70
2019-02-15T07:16:12.537Z,4.77
2019-02-15T07:17:12.519Z,4.72
2019-02-15T07:18:12.537Z,4.78
2019-02-15T07:19:12.526Z,4.72
2019-02-15T07:20:12.488Z,4.84
2019-02-15T07:21:12.471Z,4.78
2019-02-15T07:22:12.493Z,4.85
2019-02-15T07:23:12.473Z,4.89
2019-02-15T07:24:12.468Z,4.92
2019-02-15T07:25:12.447Z,4.99
2019-02-15T07:26:12.421Z,5.09
2019-02-15T07:27:12.407Z,5.02
2019-02-15T07:28:12.429Z,5.02
2019-02-15T07:29:12.386Z,5.17
2019-02-15T07:30:12.521Z,5.10
2019-02-15T07:31:12.373Z,5.25
2019-02-15T07:32:12.387Z,5.28
2019-02-15T07:33:12.373Z,5.25
2019-02-15T07:34:12.361Z,5.46
2019-02-15T07:35:12.358Z,5.60
2019-02-15T07:36:12.321Z,5.97
2019-02-15T07:37:12.308Z,6.58
2019-02-15T07:38:12.311Z,7.28
2019-02-15T07:39:12.280Z,8.02
2019-02-15T07:40:12.272Z,8.59
2019-02-15T07:41:12.282Z,9.02
2019-02-15T07:42:12.278Z,9.54
2019-02-15T07:43:12.244Z,9.81
2019-02-15T07:44:12.228Z,10.02
2019-02-15T07:45:12.226Z,10.04
2019-02-15T07:46:12.207Z,10.05
2019-02-15T07:47:12.214Z,10.34
2019-02-15T07:48:12.206Z,10.52
2019-02-15T07:49:12.171Z,10.60
2019-02-15T07:50:12.158Z,10.56
2019-02-15T07:51:12.158Z,10.47
2019-02-15T07:52:12.142Z,10.44
2019-02-15T07:53:12.141Z,10.33
2019-02-15T07:54:12.117Z,10.30
2019-02-15T07:55:12.109Z,10.12
2019-02-15T07:56:12.096Z,10.22
2019-02-15T07:57:12.084Z,10.14
2019-02-15T07:58:12.091Z,10.26
2019-02-15T07:59:12.059Z,10.41
2019-02-15T08:00:12.071Z,10.45
2019-02-15T08:01:12.032Z,10.48
2019-02-15T08:02:12.028Z,10.60
2019-02-15T08:03:12.018Z,10.67
2019-02-15T08:04:12.026Z,10.82
2019-02-15T08:05:11.998Z,11.04
2019-02-15T08:06:12.013Z,11.52
2019-02-15T08:07:11.969Z,11.54
2019-02-15T08:08:11.981Z,11.61
2019-02-15T08:09:11.955Z,11.85
2019-02-15T08:10:11.956Z,11.44
2019-02-15T08:11:11.929Z,10.92
2019-02-15T08:12:11.921Z,10.53
2019-02-15T08:13:11.899Z,10.05
2019-02-15T08:14:14.822Z,9.86
2019-02-15T08:15:11.895Z,9.84
2019-02-15T08:16:11.887Z,10.01
2019-02-15T08:17:11.871Z,10.23
2019-02-15T08:18:11.863Z,10.74
2019-02-15T08:19:11.851Z,11.25
2019-02-15T08:20:11.848Z,12.01
2019-02-15T08:21:13.198Z,12.56
2019-02-15T08:22:11.809Z,13.36
2019-02-15T08:23:11.795Z,13.82
2019-02-15T08:24:11.797Z,14.32
2019-02-15T08:25:11.788Z,14.65
2019-02-15T08:26:11.769Z,14.62
2019-02-15T08:27:11.793Z,14.94
2019-02-15T08:28:11.743Z,15.16
2019-02-15T08:29:11.741Z,15.27
2019-02-15T08:30:11.743Z,15.38
2019-02-15T08:31:11.719Z,15.41
2019-02-15T08:32:11.699Z,15.78
2019-02-15T08:33:11.682Z,16.01
2019-02-15T08:34:11.685Z,16.33
2019-02-15T08:35:11.664Z,16.61
2019-02-15T08:36:11.674Z,16.71
2019-02-15T08:37:11.650Z,16.71
2019-02-15T08:38:11.648Z,16.83
2019-02-15T08:39:11.619Z,17.16
2019-02-15T08:40:11.603Z,17.21
2019-02-15T08:41:11.617Z,17.04
2019-02-15T08:42:11.588Z,16.82
2019-02-15T08:43:11.585Z,16.31
2019-02-15T08:44:11.561Z,15.74
2019-02-15T08:45:11.561Z,15.27
2019-02-15T08:46:11.571Z,14.73
2019-02-15T08:47:11.541Z,14.17
2019-02-15T08:48:11.528Z,13.81
2019-02-15T08:49:11.520Z,13.44
2019-02-15T08:50:11.509Z,12.85
2019-02-15T08:51:11.501Z,12.60
2019-02-15T08:52:11.486Z,12.31
2019-02-15T08:53:11.469Z,12.12
2019-02-15T08:54:11.457Z,11.79
2019-02-15T08:55:11.451Z,11.64
2019-02-15T08:56:11.450Z,11.44
2019-02-15T08:57:11.434Z,11.28
2019-02-15T08:58:11.522Z,11.35
2019-02-15T08:59:11.401Z,11.51
2019-02-15T09:00:11.398Z,11.75
2019-02-15T09:01:11.596Z,11.94
2019-02-15T09:02:11.411Z,12.38
2019-02-15T09:03:11.363Z,12.71
2019-02-15T09:04:11.368Z,12.97
2019-02-15T09:05:11.335Z,13.36
2019-02-15T09:06:11.340Z,13.89
2019-02-15T09:07:11.318Z,14.47
2019-02-15T09:08:11.323Z,14.51
2019-02-15T09:09:11.309Z,13.96
2019-02-15T09:10:11.289Z,13.63
2019-02-15T09:11:11.301Z,13.60
2019-02-15T09:12:11.276Z,13.42
2019-02-15T09:13:11.256Z,13.54
2019-02-15T09:14:11.244Z,13.57
2019-02-15T09:15:11.225Z,13.64
2019-02-15T09:16:11.233Z,13.81
2019-02-15T09:17:11.205Z,14.12
2019-02-15T09:18:11.195Z,14.32
2019-02-15T09:19:11.188Z,14.52
2019-02-15T09:20:11.182Z,14.77
2019-02-15T09:21:11.166Z,14.73
2019-02-15T09:22:11.168Z,14.81
2019-02-15T09:23:12.290Z,14.77
2019-02-15T09:24:11.125Z,14.51
2019-02-15T09:25:11.132Z,14.42
2019-02-15T09:26:18.009Z,14.00
2019-02-15T09:27:12.112Z,13.62
2019-02-15T09:28:11.092Z,13.41
2019-02-15T09:29:11.095Z,13.05
2019-02-15T09:30:11.067Z,12.75
2019-02-15T09:31:11.058Z,12.42
2019-02-15T09:32:11.080Z,12.20
2019-02-15T09:33:11.052Z,12.13
2019-02-15T09:34:11.038Z,12.19
2019-02-15T09:35:11.012Z,12.13
2019-02-15T09:36:10.996Z,12.09
2019-02-15T09:37:11.001Z,12.04
2019-02-15T09:38:10.986Z,12.20
2019-02-15T09:39:10.972Z,12.17
2019-02-15T09:40:10.957Z,12.39
2019-02-15T09:41:10.945Z,12.47
2019-02-15T09:42:10.954Z,12.50
2019-02-15T09:43:10.923Z,12.23
2019-02-15T09:44:10.909Z,12.29
2019-02-15T09:45:10.901Z,12.39
2019-02-15T09:46:19.290Z,12.59
2019-02-15T09:47:11.890Z,12.86
2019-02-15T09:48:10.868Z,12.96
2019-02-15T09:49:10.853Z,13.17
2019-02-15T09:50:12.235Z,13.39
2019-02-15T09:51:10.837Z,13.57
2019-02-15T09:52:10.824Z,13.55
2019-02-15T09:53:10.829Z,13.52
2019-02-15T09:54:10.807Z,13.63
2019-02-15T09:55:10.787Z,13.60
2019-02-15T09:56:10.798Z,13.62
2019-02-15T09:57:10.769Z,13.32
2019-02-15T09:58:10.755Z,13.17
2019-02-15T09:59:10.752Z,13.01
2019-02-15T10:00:10.751Z,12.95
2019-02-15T10:01:10.725Z,12.89
2019-02-15T10:02:10.723Z,12.89
2019-02-15T10:03:10.719Z,12.70
2019-02-15T10:04:10.696Z,12.68
2019-02-15T10:05:10.685Z,12.71
2019-02-15T10:06:10.678Z,12.53
2019-02-15T10:07:10.655Z,12.50
2019-02-15T10:08:10.658Z,12.39
2019-02-15T10:09:10.660Z,12.20
2019-02-15T10:10:10.647Z,12.19
2019-02-15T10:11:10.625Z,12.01
2019-02-15T10:12:10.613Z,11.83
2019-02-15T10:13:10.595Z,11.67
2019-02-15T10:14:10.586Z,11.72
2019-02-15T10:15:10.579Z,11.60
2019-02-15T10:16:10.562Z,11.72
2019-02-15T10:17:10.556Z,11.86
2019-02-15T10:18:10.544Z,11.82
2019-02-15T10:19:10.539Z,11.67
2019-02-15T10:20:10.521Z,11.60
2019-02-15T10:21:10.505Z,11.55
2019-02-15T10:22:11.511Z,11.65
2019-02-15T10:23:10.490Z,11.70
2019-02-15T10:24:10.477Z,11.67
2019-02-15T10:25:10.479Z,11.83
2019-02-15T10:26:10.456Z,11.85
2019-02-15T10:27:10.437Z,12.01
2019-02-15T10:28:10.429Z,12.02
2019-02-15T10:29:10.419Z,12.20
2019-02-15T10:30:10.406Z,12.32
2019-02-15T10:31:10.412Z,12.46
2019-02-15T10:32:10.391Z,12.46
2019-02-15T10:33:10.378Z,12.54
2019-02-15T10:34:10.359Z,12.72
2019-02-15T10:35:10.380Z,12.95
2019-02-15T10:36:10.341Z,12.96
2019-02-15T10:37:10.335Z,13.08
2019-02-15T10:38:10.332Z,13.17
2019-02-15T10:39:10.304Z,13.19
2019-02-15T10:40:10.299Z,13.14
2019-02-15T10:41:10.295Z,13.12
2019-02-15T10:42:10.270Z,13.14
2019-02-15T10:43:10.282Z,13.25
2019-02-15T10:44:10.257Z,13.08
2019-02-15T10:45:10.244Z,13.22
2019-02-15T10:46:10.250Z,13.38
2019-02-15T10:47:14.352Z,13.54
2019-02-15T10:48:11.210Z,13.46
2019-02-15T10:49:10.202Z,13.52
2019-02-15T10:50:10.192Z,13.59
2019-02-15T10:51:10.188Z,13.62
2019-02-15T10:52:10.166Z,13.87
2019-02-15T10:53:11.033Z,14.03
2019-02-15T10:54:10.140Z,13.78
2019-02-15T10:55:10.137Z,13.79
2019-02-15T10:56:10.134Z,14.02
2019-02-15T10:57:10.128Z,14.10
2019-02-15T10:58:10.120Z,14.20
2019-02-15T10:59:11.230Z,14.32
2019-02-15T11:00:10.078Z,14.33
2019-02-15T11:01:10.066Z,14.15
2019-02-15T11:02:10.057Z,13.82
2019-02-15T11:03:10.053Z,13.79
2019-02-15T11:04:10.048Z,13.85
2019-02-15T11:05:10.026Z,13.89
2019-02-15T11:06:10.010Z,13.63
2019-02-15T11:07:10.030Z,13.55
2019-02-15T11:08:09.993Z,13.55
2019-02-15T11:09:09.982Z,13.62
2019-02-15T11:10:09.986Z,13.60
2019-02-15T11:11:09.953Z,13.62
2019-02-15T11:12:09.963Z,13.57
2019-02-15T11:13:09.936Z,13.51
2019-02-15T11:14:09.951Z,13.39
2019-02-15T11:15:09.918Z,13.36
2019-02-15T11:16:09.904Z,13.44
2019-02-15T11:17:09.893Z,13.49
2019-02-15T11:18:09.901Z,13.23
2019-02-15T11:19:09.867Z,13.14
2019-02-15T11:20:09.857Z,13.22
2019-02-15T11:21:09.849Z,13.28
2019-02-15T11:22:09.840Z,13.30
2019-02-15T11:23:09.821Z,13.23
2019-02-15T11:24:09.829Z,13.23
2019-02-15T11:25:09.804Z,13.11
2019-02-15T11:26:09.790Z,13.12
2019-02-15T11:27:09.786Z,13.08
2019-02-15T11:28:09.789Z,13.05
2019-02-15T11:29:09.764Z,13.11
2019-02-15T11:30:09.780Z,13.29
2019-02-15T11:31:09.740Z,13.32
2019-02-15T11:32:09.759Z,13.28
2019-02-15T11:33:09.723Z,13.11
2019-02-15T11:34:09.716Z,13.11
2019-02-15T11:35:09.703Z,13.25
2019-02-15T11:36:09.696Z,13.38
2019-02-15T11:37:09.686Z,13.38
2019-02-15T11:38:09.671Z,13.54
2019-02-15T11:39:09.654Z,13.42
2019-02-15T11:40:09.639Z,13.44
2019-02-15T11:41:11.389Z,13.41
2019-02-15T11:42:09.628Z,13.44
2019-02-15T11:43:09.623Z,13.59
2019-02-15T11:44:09.597Z,13.63
2019-02-15T11:45:09.597Z,13.54
2019-02-15T11:46:09.568Z,13.59
2019-02-15T11:47:09.565Z,13.60
2019-02-15T11:48:09.557Z,13.67
2019-02-15T11:49:09.560Z,13.73
2019-02-15T11:50:09.543Z,13.67
2019-02-15T11:51:09.566Z,13.75
2019-02-15T11:52:09.508Z,13.59
2019-02-15T11:53:09.498Z,13.73
2019-02-15T11:54:09.493Z,13.70
2019-02-15T11:55:09.482Z,13.70
2019-02-15T11:56:09.460Z,13.84
2019-02-15T11:57:09.449Z,13.63
2019-02-15T11:58:09.438Z,13.46
2019-02-15T11:59:09.446Z,13.30
2019-02-15T12:00:14.338Z,13.42
2019-02-15T12:01:10.408Z,13.39
2019-02-15T12:02:09.400Z,13.42
2019-02-15T12:03:09.383Z,13.54
2019-02-15T12:04:09.372Z,13.64
2019-02-15T12:05:09.375Z,13.60
2019-02-15T12:06:09.348Z,13.60
2019-02-15T12:07:09.347Z,13.75
2019-02-15T12:08:09.332Z,13.75
2019-02-15T12:09:09.324Z,13.60
2019-02-15T12:10:09.322Z,13.57
2019-02-15T12:11:11.082Z,13.55
2019-02-15T12:12:10.977Z,13.55
2019-02-15T12:13:09.275Z,13.62
2019-02-15T12:14:09.268Z,13.59
2019-02-15T12:15:09.263Z,13.52
2019-02-15T12:16:09.241Z,13.49
2019-02-15T12:17:09.231Z,13.45
2019-02-15T12:18:09.214Z,13.46
2019-02-15T12:19:09.213Z,13.42
2019-02-15T12:20:09.202Z,13.44
2019-02-15T12:21:09.197Z,13.44
2019-02-15T12:22:09.186Z,13.45
2019-02-15T12:23:09.162Z,13.52
2019-02-15T12:24:09.152Z,13.60
2019-02-15T12:25:09.143Z,13.42
2019-02-15T12:26:09.149Z,13.45
2019-02-15T12:27:09.116Z,13.54
2019-02-15T12:28:09.108Z,13.46
2019-02-15T12:29:09.101Z,13.63
2019-02-15T12:30:09.090Z,13.62
2019-02-15T12:31:09.092Z,13.55
2019-02-15T12:32:09.077Z,13.60
2019-02-15T12:33:09.058Z,13.62
2019-02-15T12:34:09.048Z,13.57
2019-02-15T12:35:09.029Z,13.51
2019-02-15T12:36:09.032Z,13.59
2019-02-15T12:37:09.025Z,13.46
2019-02-15T12:38:09.003Z,13.59
2019-02-15T12:39:09.003Z,13.54
2019-02-15T12:40:08.983Z,13.55
2019-02-15T12:41:08.968Z,13.64
2019-02-15T12:42:08.970Z,13.66
2019-02-15T12:43:08.983Z,13.67
2019-02-15T12:44:08.937Z,13.75
2019-02-15T12:45:08.935Z,13.70
2019-02-15T12:46:08.924Z,13.81
2019-02-15T12:47:14.845Z,13.81
2019-02-15T12:48:09.898Z,13.79
2019-02-15T12:49:08.879Z,13.78
2019-02-15T12:50:08.864Z,13.81
2019-02-15T12:51:08.861Z,13.81
2019-02-15T12:52:08.865Z,13.82
2019-02-15T12:53:08.837Z,13.82
2019-02-15T12:54:08.828Z,13.84
2019-02-15T12:55:08.810Z,13.66
2019-02-15T12:56:08.810Z,13.69
2019-02-15T12:57:08.795Z,13.69
2019-02-15T12:58:08.811Z,13.69
2019-02-15T12:59:08.777Z,13.84
2019-02-15T13:00:08.759Z,13.81
2019-02-15T13:01:08.754Z,13.84
2019-02-15T13:02:08.746Z,13.84
2019-02-15T13:03:08.733Z,13.88
2019-02-15T13:04:08.729Z,13.87
2019-02-15T13:05:08.707Z,13.87
2019-02-15T13:06:08.698Z,13.85
2019-02-15T13:07:08.680Z,13.92